CMB856 Details

Departure: Daniel K Inouye International Airport (PHNL)
Arrival: Guam International Airport (PGUM)
Route: KEOLA2 KATHS HOOPA A450 DEWSS A450 UNZ
Notes: USTRANSCOM CONTRACT FLIGHT | PAYLOAD RESTRICTED | ETOPS


Current Weather Information
PHNL 200853Z 01003KT 10SM FEW032 FEW055 23/16 A3008 RMK AO2 SLP185 T02280161 51017
PGUM 200854Z 05006KT 10SM FEW020 27/22 A2986 RMK AO2 SLP103 60000 T02670222 53013